Time;durP1;ratioP1;P1;durP2;ratioP2;P2;SDS_P1;SDS_P2;PMS_P1;PMS_P2;Temp;Humidity;BMP_temperature;BMP_pressure;BME280_temperature;BME280_humidity;BME280_pressure;Samples;Min_cycle;Max_cycle;Signal;HPM_P1;HPM_P2
2023/05/08 00:00:31;;;;;;;5.63;5.10;;;18.20;99.90;;;;;;5072432;28;20520;-68
2023/05/08 00:02:57;;;;;;;5.90;5.30;;;18.30;99.90;;;;;;5088452;28;20512;-68
2023/05/08 00:05:23;;;;;;;6.88;4.65;;;18.30;99.90;;;;;;5093262;28;20043;-68
2023/05/08 00:07:51;;;;;;;5.30;4.80;;;18.50;99.90;;;;;;5093411;28;20358;-68
2023/05/08 00:10:17;;;;;;;8.05;5.03;;;18.50;99.90;;;;;;5092801;28;20650;-68
2023/05/08 00:12:43;;;;;;;6.00;5.40;;;18.50;99.90;;;;;;5075117;28;20036;-68
2023/05/08 00:15:09;;;;;;;7.03;5.68;;;18.50;99.90;;;;;;5092003;28;20043;-68
2023/05/08 00:17:35;;;;;;;5.80;5.40;;;18.50;99.90;;;;;;5091337;28;20039;-68
2023/05/08 00:20:02;;;;;;;4.82;4.53;;;18.40;99.90;;;;;;5093170;28;20024;-68
2023/05/08 00:22:28;;;;;;;5.28;4.50;;;18.40;99.90;;;;;;5092673;28;20028;-68
2023/05/08 00:24:54;;;;;;;5.85;4.15;;;18.50;99.90;;;;;;5074721;28;20028;-68
2023/05/08 00:27:20;;;;;;;5.10;4.60;;;18.40;99.90;;;;;;5074249;28;20052;-68
2023/05/08 00:29:47;;;;;;;5.22;4.72;;;18.20;99.90;;;;;;5074034;28;20020;-68
2023/05/08 00:32:13;;;;;;;5.25;4.70;;;18.20;99.90;;;;;;5073450;28;20036;-68
2023/05/08 00:34:39;;;;;;;5.60;4.47;;;18.20;99.90;;;;;;5092528;28;20044;-68
2023/05/08 00:37:05;;;;;;;5.05;4.55;;;18.10;99.90;;;;;;5092814;28;20032;-68
2023/05/08 00:39:32;;;;;;;6.47;4.60;;;18.00;99.90;;;;;;5056152;28;20036;-68
2023/05/08 00:41:58;;;;;;;5.82;4.25;;;17.80;99.90;;;;;;5072526;28;20381;-68
2023/05/08 00:44:24;;;;;;;5.65;4.60;;;17.40;99.90;;;;;;5076877;28;20027;-68
2023/05/08 00:46:50;;;;;;;4.45;4.10;;;17.30;99.90;;;;;;5089859;28;20043;-68
2023/05/08 00:49:16;;;;;;;7.47;4.60;;;17.40;99.90;;;;;;5092278;28;20092;-67
2023/05/08 00:51:44;;;;;;;4.70;4.20;;;17.40;99.90;;;;;;5092595;28;20020;-68
2023/05/08 00:54:10;;;;;;;4.63;4.22;;;17.40;99.90;;;;;;5057145;28;20031;-69
2023/05/08 00:56:36;;;;;;;6.18;4.20;;;17.40;99.90;;;;;;5071361;28;20091;-69
2023/05/08 00:59:05;;;;;;;4.82;3.97;;;17.20;99.90;;;;;;5068698;28;20412;-68
2023/05/08 01:01:31;;;;;;;5.65;4.07;;;17.20;99.90;;;;;;5089224;28;20028;-68
2023/05/08 01:03:57;;;;;;;6.28;4.30;;;17.40;99.90;;;;;;5073505;28;20024;-69
2023/05/08 01:06:23;;;;;;;6.32;4.70;;;17.50;99.90;;;;;;5074500;28;20036;-69
2023/05/08 01:08:49;;;;;;;6.03;4.28;;;17.60;99.90;;;;;;5091795;28;20039;-68
2023/05/08 01:11:34;;;;;;;5.90;5.28;;;17.40;99.90;;;;;;5092090;28;20027;-68
2023/05/08 01:14:20;;;;;;;5.03;4.63;;;17.20;99.90;;;;;;5091425;28;20040;-68
2023/05/08 01:17:04;;;;;;;7.80;4.35;;;17.30;99.90;;;;;;5090676;28;20047;-69
2023/05/08 01:20:00;;;;;;;4.68;4.28;;;17.40;99.90;;;;;;5090872;28;20721;-68
2023/05/08 01:23:10;;;;;;;6.38;4.60;;;17.60;99.90;;;;;;5092250;28;20024;-68
2023/05/08 01:26:00;;;;;;;4.75;4.28;;;17.60;99.90;;;;;;5056958;28;20496;-68
2023/05/08 01:28:47;;;;;;;5.00;4.50;;;17.70;99.90;;;;;;5054529;28;20020;-69
2023/05/08 01:31:21;;;;;;;4.80;4.40;;;17.60;99.90;;;;;;5084621;28;20036;-69
2023/05/08 01:34:22;;;;;;;6.68;5.47;;;17.20;99.90;;;;;;5074628;28;20028;-69
2023/05/08 01:37:02;;;;;;;5.65;4.65;;;17.30;99.90;;;;;;5014825;28;20037;-69
2023/05/08 01:39:54;;;;;;;6.25;5.10;;;17.40;99.90;;;;;;5014104;28;20061;-69
2023/05/08 01:42:25;;;;;;;5.78;4.65;;;17.50;99.90;;;;;;5015598;28;20034;-69
2023/05/08 01:44:54;;;;;;;4.97;4.28;;;17.50;99.90;;;;;;5009723;28;20053;-69
2023/05/08 01:47:21;;;;;;;4.82;4.43;;;17.50;99.90;;;;;;5009421;28;20050;-69
2023/05/08 01:49:48;;;;;;;4.78;4.35;;;17.60;99.90;;;;;;5014260;28;20032;-69
2023/05/08 01:52:36;;;;;;;5.05;4.43;;;17.60;99.90;;;;;;5028932;28;20052;-69
2023/05/08 01:55:11;;;;;;;5.60;5.00;;;17.50;99.90;;;;;;5012661;28;20384;-69
2023/05/08 01:57:41;;;;;;;5.05;4.45;;;17.60;99.90;;;;;;5014473;28;20025;-69
2023/05/08 02:00:08;;;;;;;8.07;4.50;;;17.60;99.90;;;;;;5016892;28;20149;-69
2023/05/08 02:02:34;;;;;;;6.32;4.65;;;17.60;99.90;;;;;;5016469;28;20283;-69
2023/05/08 02:05:03;;;;;;;5.38;4.32;;;17.50;99.90;;;;;;5009720;28;20052;-69
2023/05/08 02:07:30;;;;;;;4.88;4.20;;;17.50;99.90;;;;;;5030098;28;20045;-69
2023/05/08 02:09:56;;;;;;;8.63;4.93;;;17.50;99.90;;;;;;5031295;28;20044;-69
2023/05/08 02:12:22;;;;;;;6.60;5.82;;;17.40;99.90;;;;;;5043892;28;20526;-68
2023/05/08 02:14:48;;;;;;;8.68;5.38;;;17.40;99.90;;;;;;5059589;28;20020;-68
2023/05/08 02:17:15;;;;;;;6.63;4.93;;;17.40;99.90;;;;;;5075689;28;20039;-68
2023/05/08 02:19:41;;;;;;;8.63;5.07;;;17.40;99.90;;;;;;5057654;28;20035;-68
2023/05/08 02:22:07;;;;;;;7.20;4.57;;;17.40;99.90;;;;;;5081073;28;20036;-68
2023/05/08 02:24:34;;;;;;;7.70;4.57;;;17.40;99.90;;;;;;5075721;28;20032;-68
2023/05/08 02:27:00;;;;;;;5.88;4.85;;;17.40;99.90;;;;;;5075922;28;20035;-68
2023/05/08 02:29:27;;;;;;;5.10;4.60;;;17.50;99.90;;;;;;5075817;28;20468;-68
2023/05/08 02:31:53;;;;;;;5.05;4.70;;;17.50;99.90;;;;;;5075335;28;20028;-68
2023/05/08 02:34:19;;;;;;;5.38;4.88;;;17.50;99.90;;;;;;5074982;28;20028;-68
2023/05/08 02:36:45;;;;;;;6.50;5.50;;;17.50;99.90;;;;;;5059351;28;20044;-68
2023/05/08 02:39:12;;;;;;;6.32;5.55;;;17.50;99.90;;;;;;5044356;28;20032;-68
2023/05/08 02:41:39;;;;;;;6.43;5.82;;;17.50;99.90;;;;;;5056999;28;20024;-68
2023/05/08 02:44:05;;;;;;;6.20;5.65;;;17.50;99.90;;;;;;5060265;28;20461;-68
2023/05/08 02:46:54;;;;;;;5.63;4.60;;;17.50;99.90;;;;;;5092457;28;20051;-68
2023/05/08 02:49:39;;;;;;;5.32;4.85;;;17.50;99.90;;;;;;5084334;28;20039;-68
2023/05/08 02:52:16;;;;;;;5.55;4.97;;;17.50;99.90;;;;;;5057496;28;20040;-68
2023/05/08 02:55:09;;;;;;;5.47;4.88;;;17.50;99.90;;;;;;5063444;28;20040;-68
2023/05/08 02:57:41;;;;;;;5.85;5.32;;;17.50;99.90;;;;;;5099962;28;20035;-68
2023/05/08 03:00:11;;;;;;;6.00;4.95;;;17.50;99.90;;;;;;5114673;28;20427;-68
2023/05/08 03:02:41;;;;;;;5.75;5.07;;;17.50;99.90;;;;;;5107908;28;20385;-68
2023/05/08 03:05:27;;;;;;;5.60;5.10;;;17.50;99.90;;;;;;5075306;28;20024;-68
2023/05/08 03:07:55;;;;;;;6.15;4.55;;;17.60;99.90;;;;;;5075994;28;20719;-68
2023/05/08 03:10:22;;;;;;;7.05;4.82;;;17.60;99.90;;;;;;5056531;28;20032;-68
2023/05/08 03:12:49;;;;;;;5.28;4.80;;;17.60;99.90;;;;;;5084366;28;20465;-68
2023/05/08 03:15:28;;;;;;;5.55;4.93;;;17.60;99.90;;;;;;5085644;28;20032;-68
2023/05/08 03:17:55;;;;;;;5.60;4.95;;;17.50;99.90;;;;;;5077436;28;20036;-68
2023/05/08 03:20:21;;;;;;;5.60;5.07;;;17.50;99.90;;;;;;5058652;28;20466;-68
2023/05/08 03:22:47;;;;;;;6.22;5.43;;;17.60;99.90;;;;;;5106840;28;20028;-68
2023/05/08 03:25:14;;;;;;;8.55;5.43;;;17.60;99.90;;;;;;5093915;28;20039;-68
2023/05/08 03:27:40;;;;;;;7.43;5.47;;;17.70;99.90;;;;;;5058345;28;20036;-68
2023/05/08 03:30:06;;;;;;;6.18;5.57;;;17.60;99.90;;;;;;5075375;28;20087;-68
2023/05/08 03:32:32;;;;;;;6.00;4.50;;;17.60;99.90;;;;;;5075497;28;20032;-68
2023/05/08 03:34:58;;;;;;;4.80;4.30;;;17.70;99.90;;;;;;5069043;28;20043;-68
2023/05/08 03:37:28;;;;;;;6.45;4.40;;;17.60;99.90;;;;;;5056556;28;20025;-68
2023/05/08 03:39:57;;;;;;;5.55;5.00;;;17.60;99.90;;;;;;5075826;28;20385;-68
2023/05/08 03:42:24;;;;;;;5.13;4.65;;;17.50;99.90;;;;;;5079007;28;20024;-68
2023/05/08 03:44:50;;;;;;;6.10;5.60;;;17.30;99.90;;;;;;5073030;28;20043;-68
2023/05/08 03:47:17;;;;;;;6.03;5.25;;;17.30;99.90;;;;;;5091509;28;20059;-68
2023/05/08 03:49:44;;;;;;;5.65;5.15;;;17.20;99.90;;;;;;5080089;28;20054;-68
2023/05/08 03:52:11;;;;;;;5.97;5.38;;;17.10;99.90;;;;;;5062562;28;20031;-68
2023/05/08 03:54:38;;;;;;;6.85;5.53;;;17.00;99.90;;;;;;5074377;28;20036;-68
2023/05/08 03:57:04;;;;;;;5.50;5.00;;;16.90;99.90;;;;;;5086322;28;20054;-68
2023/05/08 03:59:48;;;;;;;5.40;4.90;;;17.00;99.90;;;;;;5075355;28;20040;-68
2023/05/08 04:02:24;;;;;;;5.32;4.70;;;17.20;99.90;;;;;;5093048;27;20055;-68
2023/05/08 04:04:54;;;;;;;5.25;4.75;;;17.20;99.90;;;;;;5092580;28;20028;-68
2023/05/08 04:07:48;;;;;;;4.88;4.03;;;17.20;99.90;;;;;;5069346;28;20040;-68
2023/05/08 04:10:31;;;;;;;5.30;4.35;;;17.30;99.90;;;;;;5014100;28;20042;-68
2023/05/08 04:13:27;;;;;;;5.22;4.40;;;17.40;99.90;;;;;;5030794;28;20026;-68
2023/05/08 04:16:16;;;;;;;7.78;4.82;;;17.40;99.90;;;;;;5021866;28;20033;-68
2023/05/08 04:18:44;;;;;;;6.30;5.35;;;17.40;99.90;;;;;;5017977;28;20030;-68
2023/05/08 04:21:10;;;;;;;5.82;5.22;;;17.50;99.90;;;;;;5020017;28;20037;-68
2023/05/08 04:23:38;;;;;;;5.53;5.03;;;17.60;99.90;;;;;;5001536;28;20049;-68
2023/05/08 04:26:04;;;;;;;5.65;4.95;;;17.60;99.90;;;;;;5029404;28;20052;-68
2023/05/08 04:28:30;;;;;;;6.38;4.75;;;17.60;99.90;;;;;;5033496;28;20049;-68
2023/05/08 04:30:56;;;;;;;6.90;4.60;;;17.60;99.90;;;;;;5033640;28;20048;-68
2023/05/08 04:33:22;;;;;;;5.07;4.22;;;17.60;99.90;;;;;;5033312;28;20394;-68
2023/05/08 04:35:49;;;;;;;5.22;4.15;;;17.60;99.90;;;;;;5049323;28;20029;-68
2023/05/08 04:38:15;;;;;;;5.95;4.75;;;17.60;99.90;;;;;;5032069;28;20033;-68
2023/05/08 04:40:41;;;;;;;4.70;4.30;;;17.60;99.90;;;;;;5049941;28;20056;-68
2023/05/08 04:43:07;;;;;;;5.00;4.57;;;17.60;99.90;;;;;;5050383;28;20033;-68
2023/05/08 04:45:33;;;;;;;4.82;4.32;;;17.60;99.90;;;;;;5034622;28;20037;-68
2023/05/08 04:47:59;;;;;;;4.93;4.43;;;17.60;99.90;;;;;;5066838;28;20049;-68
2023/05/08 04:50:25;;;;;;;5.82;4.35;;;17.60;99.90;;;;;;5072156;28;20043;-68
2023/05/08 04:52:51;;;;;;;7.00;4.32;;;17.60;99.90;;;;;;5091217;28;20040;-68
2023/05/08 04:55:17;;;;;;;5.05;4.10;;;17.60;99.90;;;;;;5091831;28;20032;-68
2023/05/08 04:57:44;;;;;;;5.72;4.30;;;17.70;99.90;;;;;;5092335;28;20028;-68
2023/05/08 05:00:11;;;;;;;5.28;4.28;;;17.60;99.90;;;;;;5090994;28;20028;-68
2023/05/08 05:02:37;;;;;;;4.88;4.20;;;17.70;99.90;;;;;;5092411;28;20039;-68
2023/05/08 05:05:03;;;;;;;4.55;4.00;;;17.60;99.90;;;;;;5092201;28;20055;-68
2023/05/08 05:07:29;;;;;;;7.18;4.10;;;17.60;99.90;;;;;;5090778;28;20040;-68
2023/05/08 05:09:55;;;;;;;4.57;4.18;;;17.60;99.90;;;;;;5074010;28;20036;-68
2023/05/08 05:12:21;;;;;;;4.68;4.10;;;17.60;99.90;;;;;;5092351;28;20067;-68
2023/05/08 05:14:47;;;;;;;5.97;4.30;;;17.60;99.90;;;;;;5092706;28;20016;-68
2023/05/08 05:17:14;;;;;;;6.05;4.60;;;17.60;99.90;;;;;;5091923;28;20484;-68
2023/05/08 05:19:40;;;;;;;5.22;4.18;;;17.60;99.90;;;;;;5092057;28;20035;-68
2023/05/08 05:22:07;;;;;;;5.68;4.88;;;17.60;99.90;;;;;;5091575;28;20473;-68
2023/05/08 05:24:34;;;;;;;7.47;4.40;;;17.70;99.90;;;;;;5092171;28;20024;-68
2023/05/08 05:27:01;;;;;;;7.40;4.68;;;17.70;99.90;;;;;;5091071;28;20035;-68
2023/05/08 05:29:27;;;;;;;5.43;4.60;;;17.70;99.90;;;;;;5091117;28;20028;-68
2023/05/08 05:31:53;;;;;;;5.82;4.72;;;17.60;99.90;;;;;;5092873;28;20392;-68
2023/05/08 05:34:20;;;;;;;6.88;4.65;;;17.70;99.90;;;;;;5096051;28;20040;-68
2023/05/08 05:36:46;;;;;;;6.63;4.70;;;17.70;99.90;;;;;;5085082;28;20492;-69
2023/05/08 05:39:13;;;;;;;5.35;4.47;;;17.70;99.90;;;;;;5095672;28;20035;-69
2023/05/08 05:41:41;;;;;;;9.43;4.43;;;17.70;99.90;;;;;;5096231;28;20036;-68
2023/05/08 05:44:07;;;;;;;5.45;4.60;;;17.70;99.90;;;;;;5094898;28;20461;-68
2023/05/08 05:46:33;;;;;;;6.22;4.40;;;17.80;99.90;;;;;;5095552;28;20531;-68
2023/05/08 05:48:59;;;;;;;7.15;4.60;;;17.80;99.90;;;;;;5095826;28;20036;-68
2023/05/08 05:51:26;;;;;;;5.03;4.53;;;17.70;99.90;;;;;;5096085;28;20376;-68
2023/05/08 05:53:52;;;;;;;5.80;4.60;;;17.80;99.90;;;;;;5094554;28;20044;-68
2023/05/08 05:56:18;;;;;;;9.18;4.70;;;17.80;99.90;;;;;;5094682;28;20380;-68
2023/05/08 05:58:45;;;;;;;8.65;4.68;;;17.80;99.90;;;;;;5060686;28;20048;-68
2023/05/08 06:01:11;;;;;;;7.10;4.55;;;17.80;99.90;;;;;;5094245;28;20477;-68
2023/05/08 06:03:37;;;;;;;5.35;4.25;;;17.80;99.90;;;;;;5084365;28;20390;-69
2023/05/08 06:06:03;;;;;;;7.13;4.45;;;17.80;99.90;;;;;;5057073;28;20044;-68
2023/05/08 06:08:29;;;;;;;6.90;4.75;;;17.80;99.90;;;;;;5088333;28;20051;-68
2023/05/08 06:10:55;;;;;;;5.32;4.82;;;17.90;99.90;;;;;;5093687;28;20036;-69
2023/05/08 06:13:22;;;;;;;8.73;5.10;;;18.00;99.90;;;;;;5095023;28;20465;-68
2023/05/08 06:15:49;;;;;;;6.20;4.93;;;18.00;99.90;;;;;;5082463;28;20048;-68
2023/05/08 06:18:15;;;;;;;6.28;5.05;;;18.00;99.90;;;;;;5089544;28;20028;-68
2023/05/08 06:20:42;;;;;;;8.55;5.18;;;18.10;99.90;;;;;;5094997;28;20032;-68
2023/05/08 06:23:08;;;;;;;8.48;5.30;;;18.00;99.90;;;;;;5064502;28;20040;-68
2023/05/08 06:25:34;;;;;;;8.48;5.75;;;18.10;99.90;;;;;;5074917;28;20047;-68
2023/05/08 06:28:00;;;;;;;7.47;5.40;;;18.20;99.90;;;;;;5086480;28;20052;-68
2023/05/08 06:30:26;;;;;;;8.32;5.50;;;18.20;99.90;;;;;;5093749;28;20028;-68
2023/05/08 06:32:52;;;;;;;9.48;6.70;;;18.20;99.90;;;;;;5094927;28;20046;-68
2023/05/08 06:35:18;;;;;;;7.53;6.72;;;18.10;99.90;;;;;;5082856;28;20028;-68
2023/05/08 06:37:45;;;;;;;9.10;6.50;;;18.10;99.90;;;;;;5074200;28;20032;-68
2023/05/08 06:40:12;;;;;;;7.53;6.50;;;18.10;99.90;;;;;;5076901;28;20039;-67
2023/05/08 06:42:38;;;;;;;8.15;6.50;;;18.10;99.90;;;;;;5093132;28;20028;-68
2023/05/08 06:45:05;;;;;;;9.50;6.75;;;18.10;99.90;;;;;;5082451;28;20027;-68
2023/05/08 06:47:31;;;;;;;9.63;6.82;;;18.20;99.90;;;;;;5093874;28;20036;-68
2023/05/08 06:49:57;;;;;;;11.13;7.78;;;18.30;99.90;;;;;;5094430;28;20024;-68
2023/05/08 06:52:24;;;;;;;10.82;7.90;;;18.20;99.90;;;;;;5094362;28;20365;-68
2023/05/08 06:54:50;;;;;;;12.10;8.65;;;18.20;99.90;;;;;;5075848;28;20021;-68
2023/05/08 06:57:16;;;;;;;11.65;9.23;;;18.10;99.90;;;;;;5088948;28;20095;-68
2023/05/08 06:59:42;;;;;;;11.07;9.27;;;18.00;99.90;;;;;;5093661;28;20048;-68
2023/05/08 07:02:09;;;;;;;11.10;9.25;;;17.90;99.90;;;;;;5093874;28;20079;-68
2023/05/08 07:04:35;;;;;;;13.00;9.82;;;17.90;99.90;;;;;;5094391;28;20245;-68
2023/05/08 07:07:02;;;;;;;11.85;9.55;;;17.70;99.90;;;;;;5076267;28;20032;-68
2023/05/08 07:09:28;;;;;;;12.27;9.50;;;17.70;99.90;;;;;;5092015;28;20036;-68
2023/05/08 07:11:54;;;;;;;11.10;9.27;;;17.60;99.90;;;;;;5075839;28;20047;-68
2023/05/08 07:14:20;;;;;;;10.50;9.40;;;17.50;99.90;;;;;;5094089;28;20414;-68
2023/05/08 07:16:46;;;;;;;12.02;9.07;;;17.50;99.90;;;;;;5093736;28;20047;-68
2023/05/08 07:19:12;;;;;;;11.15;8.65;;;17.50;99.90;;;;;;5093366;28;20043;-68
2023/05/08 07:21:39;;;;;;;12.63;8.25;;;17.60;99.90;;;;;;5093749;28;20028;-68
2023/05/08 07:24:05;;;;;;;10.63;8.95;;;17.50;99.90;;;;;;5092976;28;20035;-68
2023/05/08 07:26:31;;;;;;;10.98;9.00;;;17.50;99.90;;;;;;5093752;28;20047;-68
2023/05/08 07:28:57;;;;;;;9.75;8.70;;;17.40;99.90;;;;;;5093796;28;20036;-68
2023/05/08 07:31:23;;;;;;;10.02;8.85;;;17.30;99.90;;;;;;5057921;28;20039;-68
2023/05/08 07:33:49;;;;;;;12.98;9.05;;;17.20;99.90;;;;;;5075707;28;20145;-68
2023/05/08 07:36:16;;;;;;;10.00;8.88;;;17.20;99.90;;;;;;5088575;28;20025;-68
2023/05/08 07:38:42;;;;;;;11.52;9.02;;;17.20;99.90;;;;;;5082413;28;20028;-68
2023/05/08 07:41:08;;;;;;;9.38;8.27;;;17.10;99.90;;;;;;5093291;28;20028;-68
2023/05/08 07:43:34;;;;;;;9.40;8.50;;;17.20;99.90;;;;;;5093246;28;20461;-68
2023/05/08 07:46:00;;;;;;;9.40;8.40;;;17.20;99.90;;;;;;5062950;28;20063;-68
2023/05/08 07:48:26;;;;;;;8.80;7.90;;;17.20;99.90;;;;;;5088702;28;20040;-68
2023/05/08 07:50:52;;;;;;;10.52;8.80;;;17.10;99.90;;;;;;5089426;28;20382;-70
2023/05/08 07:53:18;;;;;;;9.93;8.95;;;17.20;99.90;;;;;;5074567;28;20032;-70
2023/05/08 07:55:44;;;;;;;9.73;8.73;;;17.20;99.90;;;;;;5074596;28;20495;-69
2023/05/08 07:58:10;;;;;;;11.20;8.75;;;17.20;99.90;;;;;;5073035;28;20047;-69
2023/05/08 08:00:37;;;;;;;14.25;9.85;;;17.20;99.90;;;;;;5083846;28;20032;-68
2023/05/08 08:03:03;;;;;;;156.93;15.65;;;17.10;99.90;;;;;;5091019;28;20036;-68
2023/05/08 08:05:29;;;;;;;14.23;9.88;;;17.30;99.90;;;;;;5085313;28;20039;-69
2023/05/08 08:07:55;;;;;;;11.82;9.43;;;17.40;99.90;;;;;;5076863;28;20386;-69
2023/05/08 08:10:21;;;;;;;14.48;10.05;;;17.30;99.90;;;;;;5084708;28;20035;-68
2023/05/08 08:12:47;;;;;;;15.13;10.05;;;17.40;99.90;;;;;;5091856;28;20040;-68
2023/05/08 08:15:13;;;;;;;15.38;10.07;;;17.40;99.90;;;;;;5090930;28;20032;-68
2023/05/08 08:17:39;;;;;;;16.60;11.20;;;17.40;99.90;;;;;;5084360;28;20039;-69
2023/05/08 08:20:06;;;;;;;15.77;9.80;;;17.40;99.90;;;;;;5092692;28;20039;-68
2023/05/08 08:22:32;;;;;;;15.02;10.05;;;17.40;99.90;;;;;;5092643;28;20398;-68
2023/05/08 08:24:58;;;;;;;10.60;9.20;;;17.40;99.90;;;;;;5074255;28;20036;-68
2023/05/08 08:27:24;;;;;;;11.57;10.00;;;17.50;99.90;;;;;;5090910;28;20028;-68
2023/05/08 08:29:50;;;;;;;13.05;10.18;;;17.50;99.90;;;;;;5082397;28;20027;-69
2023/05/08 08:32:16;;;;;;;14.70;9.38;;;17.60;99.90;;;;;;5091007;28;20028;-69
2023/05/08 08:34:42;;;;;;;12.30;10.32;;;17.60;99.90;;;;;;5092750;28;20024;-69
2023/05/08 08:37:08;;;;;;;12.88;9.57;;;17.60;99.90;;;;;;5073221;28;20035;-68
2023/05/08 08:39:35;;;;;;;13.45;9.63;;;17.70;99.90;;;;;;5078500;28;20032;-68
2023/05/08 08:42:01;;;;;;;12.18;10.05;;;17.70;99.90;;;;;;5077189;28;20024;-68
2023/05/08 08:44:27;;;;;;;12.32;9.23;;;17.70;99.90;;;;;;5091874;28;20031;-68
2023/05/08 08:46:53;;;;;;;11.80;9.73;;;17.70;99.90;;;;;;5073346;28;20415;-69
2023/05/08 08:49:24;;;;;;;11.90;10.13;;;17.70;99.90;;;;;;5074106;28;20035;-68
2023/05/08 08:51:52;;;;;;;13.20;10.52;;;17.80;99.90;;;;;;5058054;28;20020;-69
2023/05/08 08:54:20;;;;;;;12.02;10.70;;;17.80;99.90;;;;;;5074601;28;20046;-68
2023/05/08 08:56:47;;;;;;;10.93;9.25;;;17.90;99.90;;;;;;5074024;28;20035;-68
2023/05/08 08:59:14;;;;;;;11.23;8.70;;;17.90;99.90;;;;;;5053769;28;20056;-69
2023/05/08 09:01:41;;;;;;;9.95;8.95;;;18.00;99.90;;;;;;5053208;28;20040;-69
2023/05/08 09:04:07;;;;;;;9.30;7.85;;;18.10;99.90;;;;;;5070868;28;20032;-68
2023/05/08 09:06:34;;;;;;;11.27;8.57;;;18.20;99.90;;;;;;5071372;28;20035;-68
2023/05/08 09:09:01;;;;;;;8.75;6.85;;;18.20;99.90;;;;;;5070864;28;20037;-68
2023/05/08 09:11:27;;;;;;;8.15;7.05;;;18.30;99.90;;;;;;5071523;28;20080;-68
2023/05/08 09:13:56;;;;;;;7.78;6.60;;;18.30;99.90;;;;;;5053676;28;20040;-68
2023/05/08 09:16:23;;;;;;;8.15;6.82;;;18.20;99.90;;;;;;5070116;28;20020;-68
2023/05/08 09:18:49;;;;;;;9.88;6.97;;;18.20;99.90;;;;;;5053425;28;20029;-69
2023/05/08 09:21:15;;;;;;;6.90;6.20;;;18.10;99.90;;;;;;5071562;28;20024;-69
2023/05/08 09:24:00;;;;;;;8.07;6.38;;;18.00;99.90;;;;;;5064928;28;20040;-68
2023/05/08 09:26:40;;;;;;;7.35;5.95;;;17.90;99.90;;;;;;5069064;28;20033;-68
2023/05/08 09:29:20;;;;;;;6.53;5.65;;;17.90;99.90;;;;;;5071626;28;20521;-69
2023/05/08 09:31:48;;;;;;;7.38;6.68;;;17.90;99.90;;;;;;5049828;28;20045;-69
2023/05/08 09:34:29;;;;;;;8.88;6.35;;;17.90;99.90;;;;;;5057462;28;20035;-69
2023/05/08 09:37:01;;;;;;;7.07;6.25;;;17.90;99.90;;;;;;5070120;28;20021;-68
2023/05/08 09:39:28;;;;;;;6.50;5.80;;;17.90;99.90;;;;;;5071157;28;20032;-69
2023/05/08 09:42:01;;;;;;;6.95;5.57;;;17.90;99.90;;;;;;5070726;28;20032;-68
2023/05/08 09:44:27;;;;;;;6.22;5.63;;;17.90;99.90;;;;;;5069564;28;20021;-69
2023/05/08 09:47:13;;;;;;;6.00;5.40;;;17.80;99.90;;;;;;5068319;28;20044;-69
2023/05/08 09:49:42;;;;;;;6.72;4.85;;;17.70;99.90;;;;;;5055381;28;20024;-69
2023/05/08 09:52:08;;;;;;;9.02;6.05;;;17.70;99.90;;;;;;5070050;28;20040;-69
2023/05/08 09:54:34;;;;;;;8.82;5.78;;;17.80;99.90;;;;;;5069971;28;20028;-68
2023/05/08 09:57:02;;;;;;;6.13;4.72;;;17.80;99.90;;;;;;5064661;28;20421;-68
2023/05/08 09:59:30;;;;;;;5.38;4.63;;;17.80;99.90;;;;;;5035686;28;20090;-68
2023/05/08 10:01:56;;;;;;;6.05;4.95;;;17.90;99.90;;;;;;5049314;28;20033;-68
2023/05/08 10:04:35;;;;;;;4.93;4.38;;;17.90;99.90;;;;;;5050485;28;20488;-68
2023/05/08 10:07:01;;;;;;;5.80;4.50;;;17.80;99.90;;;;;;5050373;28;20033;-68
2023/05/08 10:09:27;;;;;;;5.32;4.82;;;18.00;99.90;;;;;;5048991;28;20032;-69
2023/05/08 10:11:54;;;;;;;5.57;5.10;;;18.00;99.90;;;;;;5050218;28;20359;-69
2023/05/08 10:14:21;;;;;;;6.00;5.47;;;18.10;99.90;;;;;;5049692;28;20037;-69
2023/05/08 10:16:48;;;;;;;5.95;4.30;;;18.20;99.90;;;;;;5049745;28;20401;-69
2023/05/08 10:19:16;;;;;;;7.28;5.43;;;18.30;99.90;;;;;;5051742;28;20385;-69
2023/05/08 10:21:53;;;;;;;8.98;6.22;;;18.40;99.90;;;;;;5053751;28;20024;-69
2023/05/08 10:24:23;;;;;;;6.00;5.20;;;18.50;99.90;;;;;;5036306;28;20453;-68
2023/05/08 10:26:56;;;;;;;6.55;5.93;;;18.50;99.90;;;;;;5044102;28;20021;-68
2023/05/08 10:29:31;;;;;;;7.32;6.60;;;18.40;99.90;;;;;;5052723;28;20037;-68
2023/05/08 10:31:57;;;;;;;6.97;5.88;;;18.50;99.90;;;;;;5038468;28;20045;-69
2023/05/08 10:34:24;;;;;;;8.63;7.75;;;18.60;99.90;;;;;;5032755;28;20053;-69
2023/05/08 10:36:51;;;;;;;8.98;8.13;;;18.70;99.90;;;;;;5042682;28;20048;-68
2023/05/08 10:39:17;;;;;;;9.00;8.20;;;18.90;99.90;;;;;;5052858;28;20033;-69
2023/05/08 10:41:44;;;;;;;9.70;8.68;;;19.00;99.90;;;;;;5052916;28;20040;-68
2023/05/08 10:44:10;;;;;;;10.60;9.48;;;19.20;99.90;;;;;;5050680;28;20036;-68
2023/05/08 10:47:08;;;;;;;9.80;8.80;;;19.40;99.90;;;;;;5038885;28;20247;-68
2023/05/08 10:49:39;;;;;;;8.90;8.10;;;19.40;99.90;;;;;;5069114;28;20040;-68
2023/05/08 10:52:11;;;;;;;8.93;7.50;;;19.60;99.90;;;;;;5052759;28;20040;-68
2023/05/08 10:54:41;;;;;;;9.10;7.05;;;19.60;99.90;;;;;;5056757;28;20040;-68
2023/05/08 10:57:10;;;;;;;8.32;7.63;;;19.70;99.90;;;;;;5052622;28;20024;-69
2023/05/08 10:59:37;;;;;;;8.00;6.65;;;19.80;99.90;;;;;;5052067;28;20049;-69
2023/05/08 11:02:05;;;;;;;8.38;6.95;;;19.90;99.90;;;;;;5050960;28;20041;-69
2023/05/08 11:04:31;;;;;;;6.93;6.32;;;19.90;99.90;;;;;;5051647;28;20041;-68
2023/05/08 11:06:57;;;;;;;6.55;5.95;;;19.80;99.90;;;;;;5052277;28;20041;-68
2023/05/08 11:09:45;;;;;;;7.32;6.63;;;19.90;99.90;;;;;;5051315;28;20059;-69
2023/05/08 11:12:20;;;;;;;7.63;6.93;;;20.00;99.90;;;;;;5052561;28;20374;-69
2023/05/08 11:15:05;;;;;;;6.30;5.70;;;20.10;99.90;;;;;;5053827;28;20032;-68
2023/05/08 11:17:32;;;;;;;7.18;5.75;;;20.20;99.90;;;;;;5031632;28;20037;-69
2023/05/08 11:19:59;;;;;;;5.93;5.38;;;20.10;99.90;;;;;;5040243;28;20033;-68
2023/05/08 11:22:29;;;;;;;6.53;5.35;;;20.20;99.90;;;;;;5035851;28;20025;-68
2023/05/08 11:25:09;;;;;;;6.43;5.45;;;20.30;99.90;;;;;;5052470;28;20048;-69
2023/05/08 11:27:47;;;;;;;5.07;4.68;;;20.40;99.90;;;;;;5053473;28;20052;-68
2023/05/08 11:30:22;;;;;;;6.55;5.38;;;20.40;99.90;;;;;;5051260;28;20033;-69
2023/05/08 11:32:55;;;;;;;4.70;4.20;;;20.30;99.90;;;;;;5043561;28;20033;-69
2023/05/08 11:35:52;;;;;;;5.03;4.45;;;20.20;99.90;;;;;;5052910;28;20473;-67
2023/05/08 11:38:26;;;;;;;5.35;4.85;;;20.20;99.90;;;;;;5043123;28;20021;-68
2023/05/08 11:40:57;;;;;;;5.13;4.68;;;20.20;99.90;;;;;;5045842;28;20033;-69
2023/05/08 11:43:32;;;;;;;4.93;4.45;;;20.20;99.90;;;;;;5052087;28;20470;-69
2023/05/08 11:46:06;;;;;;;5.90;4.82;;;20.10;99.90;;;;;;5050711;28;20044;-69
2023/05/08 11:48:32;;;;;;;4.60;4.20;;;20.00;99.90;;;;;;5051790;28;20037;-68
2023/05/08 11:50:58;;;;;;;5.00;4.57;;;19.90;99.90;;;;;;5031306;28;20049;-69
2023/05/08 11:53:25;;;;;;;4.68;4.35;;;20.00;99.90;;;;;;5031725;28;20033;-69
2023/05/08 11:55:54;;;;;;;4.80;4.40;;;20.00;99.90;;;;;;5031595;28;20470;-69
2023/05/08 11:58:20;;;;;;;6.82;5.18;;;20.10;99.90;;;;;;5034006;28;20402;-68
2023/05/08 12:00:47;;;;;;;5.28;4.63;;;19.90;99.90;;;;;;5041161;28;20037;-69
2023/05/08 12:03:14;;;;;;;4.70;4.40;;;19.80;99.90;;;;;;5052927;28;20088;-69
2023/05/08 12:05:40;;;;;;;4.75;4.35;;;19.90;99.90;;;;;;5041871;28;20517;-68
2023/05/08 12:08:07;;;;;;;5.25;4.82;;;19.90;99.90;;;;;;5045851;28;20029;-69
2023/05/08 12:10:40;;;;;;;5.00;4.55;;;20.00;99.90;;;;;;5052236;28;20037;-69
2023/05/08 12:13:18;;;;;;;5.38;4.68;;;20.10;99.90;;;;;;5051196;28;20470;-68
2023/05/08 12:15:45;;;;;;;4.90;4.50;;;20.20;99.90;;;;;;5034397;28;20817;-68
2023/05/08 12:18:12;;;;;;;5.25;4.78;;;20.20;99.90;;;;;;5034621;28;20034;-69
2023/05/08 12:20:38;;;;;;;5.22;4.72;;;20.30;99.90;;;;;;5050590;28;20040;-69
2023/05/08 12:23:04;;;;;;;6.47;4.60;;;20.40;99.90;;;;;;5043105;28;20504;-68
2023/05/08 12:25:30;;;;;;;5.30;4.90;;;20.40;99.90;;;;;;5050520;28;20044;-68
2023/05/08 12:27:56;;;;;;;6.28;4.97;;;20.40;99.90;;;;;;5051089;28;20029;-68
2023/05/08 12:30:22;;;;;;;5.28;4.88;;;20.40;99.90;;;;;;5050111;28;20056;-69
2023/05/08 12:32:49;;;;;;;5.35;4.85;;;20.40;99.90;;;;;;5050725;28;20029;-69
2023/05/08 12:35:15;;;;;;;5.47;4.75;;;20.50;99.90;;;;;;5034626;28;20025;-69
2023/05/08 12:37:41;;;;;;;5.07;4.50;;;20.50;99.90;;;;;;5029397;28;20519;-69
2023/05/08 12:40:16;;;;;;;5.63;4.57;;;20.60;99.90;;;;;;5041579;28;20044;-69
2023/05/08 12:42:48;;;;;;;7.93;5.35;;;20.60;99.90;;;;;;5049132;28;20029;-69
2023/05/08 12:45:18;;;;;;;4.88;4.47;;;20.70;99.90;;;;;;5051257;28;20029;-69
2023/05/08 12:47:45;;;;;;;4.97;4.57;;;20.80;99.90;;;;;;5051244;28;20037;-69
2023/05/08 12:50:13;;;;;;;5.18;4.78;;;20.90;99.90;;;;;;5066573;28;20048;-69
2023/05/08 12:52:39;;;;;;;5.22;4.72;;;20.90;99.90;;;;;;5067242;28;20478;-69
2023/05/08 12:55:18;;;;;;;4.80;4.40;;;20.90;99.90;;;;;;5051392;28;20032;-68